createdAt,value
2023-03-25T00:01:09.181Z,5.57
2023-03-25T00:03:42.017Z,5.70
2023-03-25T00:06:09.414Z,6.00
2023-03-25T00:08:36.388Z,6.32
2023-03-25T00:11:04.388Z,5.68
2023-03-25T00:13:31.906Z,6.07
2023-03-25T00:15:59.042Z,3.92
2023-03-25T00:18:26.682Z,4.35
2023-03-25T00:20:53.429Z,5.70
2023-03-25T00:23:21.123Z,4.30
2023-03-25T00:25:48.208Z,5.68
2023-03-25T00:28:16.059Z,4.80
2023-03-25T00:30:43.617Z,3.70
2023-03-25T00:33:18.206Z,4.75
2023-03-25T00:35:44.910Z,4.68
2023-03-25T00:38:12.026Z,4.32
2023-03-25T00:40:38.714Z,4.35
2023-03-25T00:43:06.096Z,3.08
2023-03-25T00:45:33.062Z,2.97
2023-03-25T00:47:59.541Z,3.42
2023-03-25T00:50:26.369Z,3.17
2023-03-25T00:52:54.661Z,2.47
2023-03-25T00:55:21.539Z,2.67
2023-03-25T00:57:48.426Z,2.85
2023-03-25T01:00:16.990Z,2.78
2023-03-25T01:02:43.848Z,3.03
2023-03-25T01:05:11.462Z,2.47
2023-03-25T01:07:38.812Z,3.63
2023-03-25T01:10:06.110Z,2.72
2023-03-25T01:12:32.590Z,2.50
2023-03-25T01:14:59.363Z,2.45
2023-03-25T01:17:25.862Z,3.17
2023-03-25T01:19:52.337Z,3.38
2023-03-25T01:22:18.804Z,3.85
2023-03-25T01:24:45.556Z,5.15
2023-03-25T01:27:12.042Z,4.68
2023-03-25T01:29:38.539Z,4.53
2023-03-25T01:32:05.354Z,4.10
2023-03-25T01:34:33.259Z,4.50
2023-03-25T01:37:01.150Z,3.88
2023-03-25T01:39:27.693Z,4.25
2023-03-25T01:41:55.325Z,4.85
2023-03-25T01:44:24.729Z,6.25
2023-03-25T01:46:53.856Z,5.90
2023-03-25T01:49:30.254Z,4.90
2023-03-25T01:51:59.846Z,5.20
2023-03-25T01:54:27.559Z,4.00
2023-03-25T01:56:54.807Z,3.80
2023-03-25T01:59:24.917Z,3.88
2023-03-25T02:01:51.950Z,3.85
2023-03-25T02:04:22.899Z,5.25
2023-03-25T02:06:53.775Z,3.13
2023-03-25T02:09:24.666Z,4.40
2023-03-25T02:11:54.789Z,2.83
2023-03-25T02:14:23.196Z,3.28
2023-03-25T02:17:09.382Z,3.10
2023-03-25T02:19:54.493Z,4.20
2023-03-25T02:22:37.746Z,2.95
2023-03-25T02:25:07.578Z,3.50
2023-03-25T02:27:34.147Z,2.40
2023-03-25T02:30:19.281Z,2.88
2023-03-25T02:32:46.651Z,2.60
2023-03-25T02:35:16.356Z,2.40
2023-03-25T02:38:01.493Z,2.15
2023-03-25T02:40:36.712Z,1.73
2023-03-25T02:43:10.226Z,1.45
2023-03-25T02:45:40.404Z,1.25
2023-03-25T02:48:11.733Z,2.10
2023-03-25T02:50:46.819Z,1.45
2023-03-25T02:53:16.848Z,1.60
2023-03-25T02:55:43.781Z,1.88
2023-03-25T02:58:11.949Z,1.88
2023-03-25T03:00:38.797Z,2.50
2023-03-25T03:03:06.241Z,2.55
2023-03-25T03:05:38.541Z,1.77
2023-03-25T03:08:19.088Z,2.42
2023-03-25T03:10:50.486Z,2.05
2023-03-25T03:13:33.449Z,3.40
2023-03-25T03:16:18.112Z,2.63
2023-03-25T03:18:46.180Z,2.45
2023-03-25T03:21:24.163Z,1.83
2023-03-25T03:24:11.141Z,2.85
2023-03-25T03:26:38.504Z,2.58
2023-03-25T03:29:08.407Z,1.95
2023-03-25T03:31:56.273Z,2.47
2023-03-25T03:34:34.692Z,3.30
2023-03-25T03:37:02.025Z,2.33
2023-03-25T03:39:38.486Z,2.13
2023-03-25T03:42:11.640Z,3.28
2023-03-25T03:44:39.029Z,2.20
2023-03-25T03:47:14.075Z,2.05
2023-03-25T03:49:46.889Z,2.53
2023-03-25T03:52:17.148Z,2.95
2023-03-25T03:54:53.096Z,2.03
2023-03-25T03:57:21.843Z,2.70
2023-03-25T03:59:57.767Z,2.50
2023-03-25T04:02:28.449Z,3.25
2023-03-25T04:04:55.301Z,3.10
2023-03-25T04:07:39.071Z,2.78
2023-03-25T04:10:06.276Z,4.35
2023-03-25T04:12:35.544Z,2.72
2023-03-25T04:15:03.433Z,3.83
2023-03-25T04:17:30.230Z,3.95
2023-03-25T04:19:56.892Z,2.50
2023-03-25T04:22:24.713Z,2.40
2023-03-25T04:24:51.918Z,2.95
2023-03-25T04:27:19.103Z,2.53
2023-03-25T04:29:47.762Z,2.95
2023-03-25T04:32:14.646Z,1.65
2023-03-25T04:34:41.179Z,2.40
2023-03-25T04:37:07.687Z,2.70
2023-03-25T04:39:34.231Z,2.60
2023-03-25T04:42:03.894Z,2.17
2023-03-25T04:44:33.763Z,2.58
2023-03-25T04:47:01.957Z,3.95
2023-03-25T04:49:28.454Z,2.78
2023-03-25T04:51:55.779Z,2.70
2023-03-25T04:54:23.521Z,3.42
2023-03-25T04:56:51.169Z,2.13
2023-03-25T04:59:18.858Z,2.92
2023-03-25T05:01:46.230Z,2.72
2023-03-25T05:04:14.197Z,2.58
2023-03-25T05:06:42.758Z,3.03
2023-03-25T05:09:10.570Z,3.10
2023-03-25T05:11:39.653Z,2.97
2023-03-25T05:14:07.110Z,2.33
2023-03-25T05:16:33.810Z,2.95
2023-03-25T05:19:00.452Z,3.50
2023-03-25T05:21:27.421Z,2.45
2023-03-25T05:23:53.920Z,2.70
2023-03-25T05:26:20.970Z,2.50
2023-03-25T05:28:51.456Z,2.42
2023-03-25T05:31:18.400Z,2.28
2023-03-25T05:33:44.896Z,3.65
2023-03-25T05:36:13.069Z,3.10
2023-03-25T05:38:44.406Z,4.57
2023-03-25T05:41:17.108Z,3.70
2023-03-25T05:43:47.618Z,3.75
2023-03-25T05:46:14.903Z,4.57
2023-03-25T05:48:41.577Z,3.50
2023-03-25T05:51:18.351Z,3.55
2023-03-25T05:53:49.787Z,3.03
2023-03-25T05:56:20.463Z,4.45
2023-03-25T05:58:47.713Z,3.58
2023-03-25T06:01:29.455Z,4.05
2023-03-25T06:04:01.136Z,3.28
2023-03-25T06:06:27.754Z,3.40
2023-03-25T06:08:55.834Z,4.60
2023-03-25T06:11:22.398Z,3.75
2023-03-25T06:13:51.819Z,4.50
2023-03-25T06:16:20.306Z,4.93
2023-03-25T06:18:50.724Z,4.05
2023-03-25T06:21:18.465Z,3.58
2023-03-25T06:23:44.921Z,4.95
2023-03-25T06:26:11.601Z,14.43
2023-03-25T06:28:38.073Z,11.48
2023-03-25T06:31:07.341Z,12.10
2023-03-25T06:33:42.663Z,9.55
2023-03-25T06:36:11.518Z,7.50
2023-03-25T06:38:41.180Z,4.97
2023-03-25T06:41:07.639Z,5.63
2023-03-25T06:43:34.780Z,6.07
2023-03-25T06:46:01.349Z,6.00
2023-03-25T06:48:27.869Z,4.95
2023-03-25T06:50:54.452Z,4.05
2023-03-25T06:53:20.988Z,3.80
2023-03-25T06:55:48.075Z,5.00
2023-03-25T06:58:14.614Z,3.92
2023-03-25T07:00:41.392Z,4.30
2023-03-25T07:03:07.979Z,3.88
2023-03-25T07:05:34.781Z,3.70
2023-03-25T07:08:01.348Z,4.72
2023-03-25T07:10:27.849Z,4.72
2023-03-25T07:12:54.308Z,4.00
2023-03-25T07:15:20.795Z,3.17
2023-03-25T07:17:49.416Z,4.15
2023-03-25T07:20:17.135Z,3.70
2023-03-25T07:22:43.962Z,3.53
2023-03-25T07:25:10.438Z,3.65
2023-03-25T07:27:36.956Z,3.78
2023-03-25T07:30:04.776Z,3.33
2023-03-25T07:32:31.370Z,3.72
2023-03-25T07:34:57.868Z,4.00
2023-03-25T07:37:24.342Z,4.25
2023-03-25T07:39:50.867Z,4.43
2023-03-25T07:42:17.376Z,3.90
2023-03-25T07:44:44.059Z,3.72
2023-03-25T07:47:10.534Z,4.38
2023-03-25T07:49:37.081Z,4.05
2023-03-25T07:52:03.529Z,3.85
2023-03-25T07:54:30.007Z,4.10
2023-03-25T07:56:56.616Z,3.80
2023-03-25T07:59:23.182Z,3.58
2023-03-25T08:01:49.646Z,3.72
2023-03-25T08:04:16.197Z,4.13
2023-03-25T08:06:42.705Z,5.30
2023-03-25T08:09:09.187Z,3.67
2023-03-25T08:11:35.773Z,4.03
2023-03-25T08:14:02.245Z,4.40
2023-03-25T08:16:28.982Z,3.25
2023-03-25T08:18:55.537Z,3.65
2023-03-25T08:21:25.092Z,3.97
2023-03-25T08:23:52.448Z,3.72
2023-03-25T08:26:18.962Z,3.85
2023-03-25T08:28:47.499Z,6.30
2023-03-25T08:31:15.314Z,25.20
2023-03-25T08:33:42.936Z,19.52
2023-03-25T08:36:13.895Z,11.73
2023-03-25T08:38:41.694Z,6.88
2023-03-25T08:41:08.153Z,12.10
2023-03-25T08:43:34.662Z,8.52
2023-03-25T08:46:01.176Z,8.23
2023-03-25T08:48:27.724Z,7.05
2023-03-25T08:50:54.190Z,5.60
2023-03-25T08:53:20.856Z,4.53
2023-03-25T08:55:50.545Z,4.47
2023-03-25T08:58:17.090Z,4.25
2023-03-25T09:00:43.550Z,3.08
2023-03-25T09:03:10.419Z,4.97
2023-03-25T09:05:38.095Z,3.80
2023-03-25T09:08:05.065Z,3.42
2023-03-25T09:10:31.658Z,3.70
2023-03-25T09:12:58.205Z,3.72
2023-03-25T09:15:24.678Z,3.03
2023-03-25T09:17:51.187Z,4.72
2023-03-25T09:20:18.790Z,4.18
2023-03-25T09:22:45.310Z,3.28
2023-03-25T09:25:11.838Z,3.58
2023-03-25T09:27:38.406Z,3.55
2023-03-25T09:30:05.157Z,3.78
2023-03-25T09:32:33.170Z,3.78
2023-03-25T09:35:00.142Z,4.72
2023-03-25T09:37:27.339Z,4.10
2023-03-25T09:39:54.010Z,3.67
2023-03-25T09:42:23.473Z,4.05
2023-03-25T09:45:12.394Z,2.90
2023-03-25T09:47:40.452Z,3.10
2023-03-25T09:50:10.679Z,4.10
2023-03-25T09:52:45.758Z,3.17
2023-03-25T09:55:16.116Z,3.28
2023-03-25T09:57:46.609Z,3.28
2023-03-25T10:00:22.598Z,4.32
2023-03-25T10:02:49.120Z,3.35
2023-03-25T10:05:24.482Z,3.30
2023-03-25T10:07:56.742Z,2.65
2023-03-25T10:10:26.442Z,2.97
2023-03-25T10:13:20.096Z,3.03
2023-03-25T10:15:50.242Z,3.83
2023-03-25T10:18:34.500Z,3.67
2023-03-25T10:23:46.991Z,3.13
2023-03-25T10:26:20.363Z,2.83
2023-03-25T10:28:52.643Z,1.88
2023-03-25T10:31:20.685Z,2.65
2023-03-25T10:33:57.901Z,2.50
2023-03-25T10:36:36.442Z,2.25
2023-03-25T10:39:05.032Z,2.33
2023-03-25T10:41:38.083Z,2.75
2023-03-25T10:44:11.079Z,3.20
2023-03-25T10:46:39.574Z,2.38
2023-03-25T10:49:06.195Z,2.58
2023-03-25T10:51:34.825Z,2.97
2023-03-25T10:54:01.736Z,2.85
2023-03-25T10:56:34.536Z,2.65
2023-03-25T10:59:03.530Z,2.67
2023-03-25T11:01:32.969Z,2.03
2023-03-25T11:04:00.740Z,3.67
2023-03-25T11:06:31.866Z,3.50
2023-03-25T11:09:18.576Z,2.20
2023-03-25T11:11:45.175Z,3.03
2023-03-25T11:14:12.217Z,2.67
2023-03-25T11:16:49.349Z,2.47
2023-03-25T11:19:22.686Z,3.17
2023-03-25T11:21:52.860Z,3.35
2023-03-25T11:24:19.886Z,3.45
2023-03-25T11:26:48.757Z,2.33
2023-03-25T11:29:20.589Z,2.53
2023-03-25T11:31:56.144Z,2.80
2023-03-25T11:34:22.994Z,2.92
2023-03-25T11:36:57.648Z,3.78
2023-03-25T11:39:24.101Z,2.30
2023-03-25T11:41:51.223Z,2.50
2023-03-25T11:44:26.291Z,2.65
2023-03-25T11:46:54.827Z,3.70
2023-03-25T11:49:22.998Z,2.53
2023-03-25T11:51:51.966Z,2.50
2023-03-25T11:54:19.388Z,2.22
2023-03-25T11:56:48.746Z,2.38
2023-03-25T11:59:23.179Z,2.83
2023-03-25T12:01:51.116Z,2.42
2023-03-25T12:04:19.639Z,2.40
2023-03-25T12:06:53.252Z,2.80
2023-03-25T12:09:19.923Z,3.88
2023-03-25T12:12:06.622Z,2.50
2023-03-25T12:14:36.274Z,2.28
2023-03-25T12:17:08.485Z,2.85
2023-03-25T12:19:38.675Z,2.72
2023-03-25T12:22:05.119Z,2.55
2023-03-25T12:24:34.698Z,3.47
2023-03-25T12:27:13.318Z,3.60
2023-03-25T12:29:42.645Z,3.13
2023-03-25T12:32:27.949Z,4.10
2023-03-25T12:35:11.713Z,2.70
2023-03-25T12:38:04.310Z,3.75
2023-03-25T12:40:33.784Z,3.03
2023-03-25T12:43:00.446Z,2.33
2023-03-25T12:45:50.196Z,2.05
2023-03-25T12:48:16.647Z,2.50
2023-03-25T12:50:52.784Z,3.03
2023-03-25T12:53:38.438Z,2.80
2023-03-25T12:56:08.536Z,2.60
2023-03-25T12:58:36.425Z,2.13
2023-03-25T13:01:21.607Z,3.83
2023-03-25T13:03:48.130Z,2.28
2023-03-25T13:06:17.893Z,2.30
2023-03-25T13:08:44.338Z,2.47
2023-03-25T13:11:16.828Z,1.95
2023-03-25T13:13:44.766Z,2.03
2023-03-25T13:16:15.298Z,2.50
2023-03-25T13:18:42.426Z,3.65
2023-03-25T13:21:17.748Z,3.22
2023-03-25T13:23:46.894Z,2.08
2023-03-25T13:26:23.932Z,2.30
2023-03-25T13:28:58.228Z,2.53
2023-03-25T13:31:33.397Z,7.45
2023-03-25T13:34:05.451Z,3.05
2023-03-25T13:36:34.442Z,1.60
2023-03-25T13:39:14.181Z,3.03
2023-03-25T13:41:52.095Z,1.83
2023-03-25T13:44:22.423Z,1.83
2023-03-25T13:46:55.093Z,1.85
2023-03-25T13:49:31.008Z,1.95
2023-03-25T13:51:58.368Z,3.28
2023-03-25T13:54:28.891Z,1.45
2023-03-25T13:56:58.502Z,2.35
2023-03-25T13:59:43.162Z,2.25
2023-03-25T14:02:12.810Z,2.53
2023-03-25T14:04:48.617Z,2.05
2023-03-25T14:07:24.229Z,2.20
2023-03-25T14:10:02.851Z,1.90
2023-03-25T14:12:37.677Z,2.15
2023-03-25T14:15:11.494Z,1.88
2023-03-25T14:20:08.345Z,2.55
2023-03-25T14:22:41.303Z,2.78
2023-03-25T14:25:33.465Z,2.25
2023-03-25T14:28:00.367Z,2.08
2023-03-25T14:30:31.123Z,1.98
2023-03-25T14:32:57.767Z,2.63
2023-03-25T14:35:41.367Z,2.47
2023-03-25T14:38:08.103Z,1.67
2023-03-25T14:43:34.782Z,2.08
2023-03-25T14:46:04.345Z,2.78
2023-03-25T14:48:38.072Z,2.83
2023-03-25T14:51:27.746Z,2.95
2023-03-25T14:53:56.605Z,2.92
2023-03-25T14:56:25.183Z,2.20
2023-03-25T14:58:53.663Z,4.32
2023-03-25T15:01:21.182Z,2.03
2023-03-25T15:03:48.803Z,2.55
2023-03-25T15:06:16.833Z,2.00
2023-03-25T15:08:50.366Z,2.72
2023-03-25T15:11:18.886Z,3.15
2023-03-25T15:13:53.363Z,2.70
2023-03-25T15:16:28.392Z,3.22
2023-03-25T15:18:54.939Z,3.55
2023-03-25T15:21:23.932Z,2.70
2023-03-25T15:23:53.403Z,2.72
2023-03-25T15:26:31.299Z,2.55
2023-03-25T15:29:17.366Z,2.03
2023-03-25T15:31:43.846Z,1.80
2023-03-25T15:34:22.649Z,2.25
2023-03-25T15:37:02.470Z,2.45
2023-03-25T15:39:54.511Z,2.42
2023-03-25T15:42:33.731Z,1.98
2023-03-25T15:45:00.537Z,2.60
2023-03-25T15:47:47.166Z,2.17
2023-03-25T15:50:39.763Z,3.00
2023-03-25T15:53:32.806Z,2.38
2023-03-25T15:56:14.883Z,2.30
2023-03-25T15:58:51.172Z,2.72
2023-03-25T16:01:21.840Z,2.55
2023-03-25T16:03:53.151Z,2.58
2023-03-25T16:06:20.089Z,2.30
2023-03-25T16:08:47.604Z,2.50
2023-03-25T16:11:20.142Z,2.10
2023-03-25T16:13:47.217Z,3.38
2023-03-25T16:16:15.368Z,5.05
2023-03-25T16:18:43.361Z,3.80
2023-03-25T16:21:10.230Z,3.90
2023-03-25T16:23:37.209Z,2.85
2023-03-25T16:26:04.786Z,3.05
2023-03-25T16:28:39.296Z,3.35
2023-03-25T16:31:06.094Z,4.07
2023-03-25T16:33:37.493Z,2.47
2023-03-25T16:36:05.873Z,4.50
2023-03-25T16:38:32.737Z,2.60
2023-03-25T16:41:00.896Z,3.95
2023-03-25T16:43:27.641Z,2.85
2023-03-25T16:45:56.781Z,3.22
2023-03-25T16:48:33.170Z,2.97
2023-03-25T16:51:01.562Z,3.22
2023-03-25T16:53:29.062Z,4.32
2023-03-25T16:56:05.574Z,3.53
2023-03-25T16:58:34.035Z,5.80
2023-03-25T17:01:01.429Z,4.22
2023-03-25T17:03:40.058Z,3.40
2023-03-25T17:06:11.008Z,3.95
2023-03-25T17:08:37.507Z,3.42
2023-03-25T17:11:04.325Z,3.75
2023-03-25T17:13:32.044Z,3.85
2023-03-25T17:15:58.860Z,4.85
2023-03-25T17:18:27.961Z,4.55
2023-03-25T17:20:58.861Z,3.17
2023-03-25T17:23:36.295Z,3.78
2023-03-25T17:26:08.374Z,4.38
2023-03-25T17:28:39.372Z,4.88
2023-03-25T17:31:24.741Z,4.93
2023-03-25T17:33:58.490Z,3.42
2023-03-25T17:36:25.949Z,3.75
2023-03-25T17:38:56.127Z,3.22
2023-03-25T17:41:27.049Z,4.88
2023-03-25T17:43:54.771Z,3.17
2023-03-25T17:46:31.005Z,3.83
2023-03-25T17:48:58.277Z,3.63
2023-03-25T17:51:26.340Z,3.40
2023-03-25T17:53:53.019Z,3.90
2023-03-25T17:56:25.088Z,4.78
2023-03-25T17:58:55.327Z,5.07
2023-03-25T18:01:22.238Z,3.85
2023-03-25T18:03:48.715Z,3.63
2023-03-25T18:06:15.248Z,3.70
2023-03-25T18:08:42.041Z,4.35
2023-03-25T18:11:09.997Z,3.70
2023-03-25T18:13:36.898Z,3.55
2023-03-25T18:16:03.447Z,3.47
2023-03-25T18:18:29.975Z,3.50
2023-03-25T18:20:56.509Z,4.38
2023-03-25T18:23:23.781Z,3.50
2023-03-25T18:25:50.611Z,3.15
2023-03-25T18:28:17.346Z,3.22
2023-03-25T18:30:50.917Z,4.03
2023-03-25T18:35:44.708Z,4.63
2023-03-25T18:38:19.253Z,3.78
2023-03-25T18:40:45.872Z,4.30
2023-03-25T18:43:12.517Z,3.45
2023-03-25T18:45:39.162Z,4.10
2023-03-25T18:48:06.175Z,4.35
2023-03-25T18:50:34.081Z,4.00
2023-03-25T18:53:00.692Z,4.35
2023-03-25T18:55:28.159Z,3.15
2023-03-25T18:57:55.213Z,14.50
2023-03-25T19:00:24.806Z,13.93
2023-03-25T19:02:52.115Z,7.05
2023-03-25T19:05:19.427Z,7.95
2023-03-25T19:07:46.023Z,14.82
2023-03-25T19:10:16.867Z,5.72
2023-03-25T19:12:44.429Z,7.50
2023-03-25T19:15:11.447Z,7.35
2023-03-25T19:17:38.227Z,5.25
2023-03-25T19:20:05.483Z,5.10
2023-03-25T19:22:32.802Z,5.38
2023-03-25T19:24:59.306Z,4.38
2023-03-25T19:27:25.818Z,5.10
2023-03-25T19:29:52.344Z,4.05
2023-03-25T19:32:18.841Z,4.47
2023-03-25T19:34:46.404Z,3.70
2023-03-25T19:37:13.871Z,4.13
2023-03-25T19:39:40.418Z,3.35
2023-03-25T19:42:06.862Z,3.85
2023-03-25T19:44:33.436Z,4.25
2023-03-25T19:46:59.937Z,3.78
2023-03-25T19:49:39.205Z,2.72
2023-03-25T19:52:07.028Z,2.60
2023-03-25T19:54:33.626Z,3.00
2023-03-25T19:57:00.193Z,3.42
2023-03-25T19:59:27.181Z,3.15
2023-03-25T20:01:53.698Z,2.58
2023-03-25T20:04:20.272Z,2.78
2023-03-25T20:06:46.735Z,2.20
2023-03-25T20:09:13.783Z,2.55
2023-03-25T20:11:40.339Z,2.70
2023-03-25T20:14:07.050Z,2.40
2023-03-25T20:16:35.031Z,2.83
2023-03-25T20:19:02.188Z,2.60
2023-03-25T20:21:28.806Z,16.65
2023-03-25T20:23:55.776Z,3.53
2023-03-25T20:26:22.531Z,2.95
2023-03-25T20:28:49.447Z,3.58
2023-03-25T20:31:18.520Z,3.08
2023-03-25T20:33:45.233Z,2.53
2023-03-25T20:36:11.899Z,3.97
2023-03-25T20:38:41.980Z,3.20
2023-03-25T20:41:13.868Z,3.33
2023-03-25T20:43:40.591Z,3.40
2023-03-25T20:46:10.218Z,2.90
2023-03-25T20:48:37.200Z,3.03
2023-03-25T20:51:05.278Z,2.85
2023-03-25T20:53:31.747Z,4.38
2023-03-25T20:55:59.356Z,5.63
2023-03-25T20:58:26.893Z,3.45
2023-03-25T21:00:56.016Z,2.20
2023-03-25T21:03:23.440Z,2.42
2023-03-25T21:05:49.977Z,2.20
2023-03-25T21:08:16.509Z,3.13
2023-03-25T21:10:47.376Z,3.22
2023-03-25T21:13:14.644Z,2.90
2023-03-25T21:15:41.558Z,2.65
2023-03-25T21:18:09.208Z,2.75
2023-03-25T21:20:36.589Z,2.70
2023-03-25T21:23:05.319Z,2.17
2023-03-25T21:25:35.342Z,3.10
2023-03-25T21:28:02.698Z,2.35
2023-03-25T21:30:29.365Z,3.35
2023-03-25T21:32:56.090Z,3.03
2023-03-25T21:35:22.898Z,3.65
2023-03-25T21:37:49.756Z,3.45
2023-03-25T21:40:16.438Z,4.15
2023-03-25T21:42:43.179Z,3.50
2023-03-25T21:45:11.128Z,3.70
2023-03-25T21:47:37.791Z,9.15
2023-03-25T21:50:09.392Z,13.80
2023-03-25T21:52:36.504Z,7.03
2023-03-25T21:55:03.974Z,3.88
2023-03-25T21:57:37.742Z,6.28
2023-03-25T22:00:05.986Z,3.65
2023-03-25T22:02:32.447Z,3.60
2023-03-25T22:04:58.912Z,6.15
2023-03-25T22:07:25.431Z,4.22
2023-03-25T22:09:51.885Z,5.65
2023-03-25T22:12:18.341Z,3.05
2023-03-25T22:14:44.825Z,3.60
2023-03-25T22:17:11.372Z,3.97
2023-03-25T22:19:39.360Z,4.50
2023-03-25T22:22:11.255Z,4.05
2023-03-25T22:24:37.834Z,3.97
2023-03-25T22:27:04.297Z,3.53
2023-03-25T22:29:31.333Z,3.67
2023-03-25T22:31:57.824Z,3.20
2023-03-25T22:34:24.376Z,5.93
2023-03-25T22:36:52.058Z,3.85
2023-03-25T22:39:19.730Z,4.18
2023-03-25T22:41:46.237Z,3.92
2023-03-25T22:44:14.980Z,5.55
2023-03-25T22:46:41.590Z,4.85
2023-03-25T22:49:08.159Z,4.05
2023-03-25T22:51:34.645Z,4.72
2023-03-25T22:54:01.166Z,5.85
2023-03-25T22:56:33.875Z,4.28
2023-03-25T22:59:01.164Z,4.43
2023-03-25T23:01:28.699Z,4.30
2023-03-25T23:03:57.480Z,4.95
2023-03-25T23:06:25.278Z,3.95
2023-03-25T23:08:52.121Z,3.80
2023-03-25T23:11:23.900Z,4.28
2023-03-25T23:13:52.089Z,5.65
2023-03-25T23:16:20.629Z,3.00
2023-03-25T23:18:47.581Z,4.65
2023-03-25T23:21:15.203Z,4.35
2023-03-25T23:23:52.538Z,4.82
2023-03-25T23:26:40.434Z,6.15
2023-03-25T23:29:09.019Z,5.63
2023-03-25T23:31:36.439Z,5.18
2023-03-25T23:34:04.447Z,7.03
2023-03-25T23:36:32.694Z,5.80
2023-03-25T23:38:59.667Z,5.22
2023-03-25T23:41:26.394Z,3.67
2023-03-25T23:43:53.636Z,4.80
2023-03-25T23:46:21.399Z,4.63
2023-03-25T23:48:48.353Z,4.18
2023-03-25T23:51:17.533Z,4.97
2023-03-25T23:53:46.838Z,4.28
2023-03-25T23:56:14.485Z,4.75
2023-03-25T23:58:41.040Z,4.68
